sensor_id;sensor_type;location;lat;lon;timestamp;pressure;altitude;pressure_sealevel;temperature;humidity
55066;BME280;40964;42.114;24.220;2023-05-29T00:01:47;97529.00;;;16.13;100.00
55066;BME280;40964;42.114;24.220;2023-05-29T00:04:12;97521.59;;;16.15;100.00
55066;BME280;40964;42.114;24.220;2023-05-29T00:06:38;97519.22;;;16.19;100.00
55066;BME280;40964;42.114;24.220;2023-05-29T00:09:03;97509.94;;;16.22;99.96
55066;BME280;40964;42.114;24.220;2023-05-29T00:11:29;97506.47;;;16.16;100.00
55066;BME280;40964;42.114;24.220;2023-05-29T00:13:55;97509.69;;;16.18;100.00
55066;BME280;40964;42.114;24.220;2023-05-29T00:16:22;97508.59;;;16.14;100.00
55066;BME280;40964;42.114;24.220;2023-05-29T00:18:49;97509.13;;;16.16;100.00
55066;BME280;40964;42.114;24.220;2023-05-29T00:21:15;97509.88;;;16.06;100.00
55066;BME280;40964;42.114;24.220;2023-05-29T00:23:41;97509.88;;;16.01;100.00
55066;BME280;40964;42.114;24.220;2023-05-29T00:26:06;97504.56;;;16.01;100.00
55066;BME280;40964;42.114;24.220;2023-05-29T00:28:32;97515.47;;;16.10;100.00
55066;BME280;40964;42.114;24.220;2023-05-29T00:30:57;97512.81;;;16.10;100.00
55066;BME280;40964;42.114;24.220;2023-05-29T00:33:23;97510.97;;;16.15;100.00
55066;BME280;40964;42.114;24.220;2023-05-29T00:35:48;97513.38;;;16.17;100.00
55066;BME280;40964;42.114;24.220;2023-05-29T00:38:14;97513.94;;;16.19;100.00
55066;BME280;40964;42.114;24.220;2023-05-29T00:40:40;97515.47;;;16.15;99.89
55066;BME280;40964;42.114;24.220;2023-05-29T00:43:05;97507.25;;;16.16;99.78
55066;BME280;40964;42.114;24.220;2023-05-29T00:45:30;97511.25;;;16.14;100.00
55066;BME280;40964;42.114;24.220;2023-05-29T00:47:57;97499.00;;;16.08;99.11
55066;BME280;40964;42.114;24.220;2023-05-29T00:50:23;97514.94;;;16.13;99.55
55066;BME280;40964;42.114;24.220;2023-05-29T00:52:49;97513.63;;;16.10;99.34
55066;BME280;40964;42.114;24.220;2023-05-29T00:55:15;97505.66;;;16.10;99.49
55066;BME280;40964;42.114;24.220;2023-05-29T00:57:41;97504.56;;;16.06;99.29
55066;BME280;40964;42.114;24.220;2023-05-29T01:00:08;97502.16;;;16.00;99.02
55066;BME280;40964;42.114;24.220;2023-05-29T01:02:36;97496.59;;;16.01;99.45
55066;BME280;40964;42.114;24.220;2023-05-29T01:05:02;97502.97;;;16.05;100.00
55066;BME280;40964;42.114;24.220;2023-05-29T01:07:28;97493.16;;;16.01;99.01
55066;BME280;40964;42.114;24.220;2023-05-29T01:09:53;97490.25;;;16.07;98.73
55066;BME280;40964;42.114;24.220;2023-05-29T01:12:43;97490.28;;;16.12;98.64
55066;BME280;40964;42.114;24.220;2023-05-29T01:20:42;97489.78;;;16.21;97.72
55066;BME280;40964;42.114;24.220;2023-05-29T01:28:27;97486.09;;;16.27;99.56
55066;BME280;40964;42.114;24.220;2023-05-29T01:30:57;97481.84;;;16.31;98.51
55066;BME280;40964;42.114;24.220;2023-05-29T01:33:23;97482.66;;;16.31;97.91
55066;BME280;40964;42.114;24.220;2023-05-29T01:35:49;97479.72;;;16.28;96.93
55066;BME280;40964;42.114;24.220;2023-05-29T01:38:15;97480.00;;;16.31;97.25
55066;BME280;40964;42.114;24.220;2023-05-29T01:40:40;97469.63;;;16.20;98.61
55066;BME280;40964;42.114;24.220;2023-05-29T01:43:06;97472.78;;;16.16;98.55
55066;BME280;40964;42.114;24.220;2023-05-29T01:45:32;97467.50;;;16.22;98.06
55066;BME280;40964;42.114;24.220;2023-05-29T01:47:58;97471.47;;;16.19;98.27
55066;BME280;40964;42.114;24.220;2023-05-29T01:50:24;97479.09;;;16.05;97.90
55066;BME280;40964;42.114;24.220;2023-05-29T01:52:50;97470.88;;;16.07;97.76
55066;BME280;40964;42.114;24.220;2023-05-29T01:55:15;97472.78;;;16.11;97.68
55066;BME280;40964;42.114;24.220;2023-05-29T01:57:41;97475.16;;;16.13;96.66
55066;BME280;40964;42.114;24.220;2023-05-29T02:00:07;97470.38;;;16.10;97.28
55066;BME280;40964;42.114;24.220;2023-05-29T02:02:40;97474.38;;;16.12;97.84
55066;BME280;40964;42.114;24.220;2023-05-29T02:05:07;97464.53;;;16.13;97.90
55066;BME280;40964;42.114;24.220;2023-05-29T02:07:33;97477.53;;;16.14;97.77
55066;BME280;40964;42.114;24.220;2023-05-29T02:09:59;97477.84;;;16.18;97.85
55066;BME280;40964;42.114;24.220;2023-05-29T02:12:25;97485.28;;;16.21;97.02
55066;BME280;40964;42.114;24.220;2023-05-29T02:14:50;97490.31;;;16.23;96.74
55066;BME280;40964;42.114;24.220;2023-05-29T02:17:16;97485.81;;;16.23;96.93
55066;BME280;40964;42.114;24.220;2023-05-29T02:19:41;97489.53;;;16.22;98.21
55066;BME280;40964;42.114;24.220;2023-05-29T02:22:07;97486.88;;;16.22;98.77
55066;BME280;40964;42.114;24.220;2023-05-29T02:27:11;97493.72;;;16.13;98.97
55066;BME280;40964;42.114;24.220;2023-05-29T02:29:37;97498.78;;;16.14;99.16
55066;BME280;40964;42.114;24.220;2023-05-29T02:32:03;97503.25;;;16.04;99.89
55066;BME280;40964;42.114;24.220;2023-05-29T02:34:30;97488.13;;;16.04;100.00
55066;BME280;40964;42.114;24.220;2023-05-29T02:36:55;97487.34;;;16.09;100.00
55066;BME280;40964;42.114;24.220;2023-05-29T02:39:21;97493.19;;;16.11;100.00
55066;BME280;40964;42.114;24.220;2023-05-29T02:41:47;97491.56;;;16.00;100.00
55066;BME280;40964;42.114;24.220;2023-05-29T02:44:12;97497.41;;;16.02;100.00
55066;BME280;40964;42.114;24.220;2023-05-29T02:46:38;97494.22;;;16.00;100.00
55066;BME280;40964;42.114;24.220;2023-05-29T02:49:03;97498.47;;;16.06;100.00
55066;BME280;40964;42.114;24.220;2023-05-29T02:51:29;97494.75;;;16.07;100.00
55066;BME280;40964;42.114;24.220;2023-05-29T02:53:55;97487.03;;;15.95;100.00
55066;BME280;40964;42.114;24.220;2023-05-29T02:56:20;97485.69;;;15.98;100.00
55066;BME280;40964;42.114;24.220;2023-05-29T02:58:52;97490.25;;;16.02;100.00
55066;BME280;40964;42.114;24.220;2023-05-29T03:01:17;97487.84;;;16.06;100.00
55066;BME280;40964;42.114;24.220;2023-05-29T03:03:43;97499.00;;;16.03;100.00
55066;BME280;40964;42.114;24.220;2023-05-29T03:06:08;97491.25;;;15.91;100.00
55066;BME280;40964;42.114;24.220;2023-05-29T03:08:35;97488.56;;;15.86;100.00
55066;BME280;40964;42.114;24.220;2023-05-29T03:11:07;97496.84;;;15.95;100.00
55066;BME280;40964;42.114;24.220;2023-05-29T03:13:36;97509.03;;;15.96;100.00
55066;BME280;40964;42.114;24.220;2023-05-29T03:16:02;97504.25;;;15.98;99.53
55066;BME280;40964;42.114;24.220;2023-05-29T03:18:27;97509.56;;;15.98;100.00
55066;BME280;40964;42.114;24.220;2023-05-29T03:20:53;97495.78;;;15.96;100.00
55066;BME280;40964;42.114;24.220;2023-05-29T03:23:19;97509.06;;;16.01;100.00
55066;BME280;40964;42.114;24.220;2023-05-29T03:25:44;97509.03;;;15.96;100.00
55066;BME280;40964;42.114;24.220;2023-05-29T03:28:10;97500.56;;;15.99;100.00
55066;BME280;40964;42.114;24.220;2023-05-29T03:30:35;97511.25;;;16.14;100.00
55066;BME280;40964;42.114;24.220;2023-05-29T03:33:01;97518.19;;;16.20;100.00
55066;BME280;40964;42.114;24.220;2023-05-29T03:35:29;97516.59;;;16.24;100.00
55066;BME280;40964;42.114;24.220;2023-05-29T03:37:55;97511.56;;;16.28;100.00
55066;BME280;40964;42.114;24.220;2023-05-29T03:40:20;97516.63;;;16.34;99.99
55066;BME280;40964;42.114;24.220;2023-05-29T03:42:46;97512.91;;;16.35;99.23
55066;BME280;40964;42.114;24.220;2023-05-29T03:45:11;97523.28;;;16.37;98.90
55066;BME280;40964;42.114;24.220;2023-05-29T03:47:37;97524.66;;;16.44;97.59
55066;BME280;40964;42.114;24.220;2023-05-29T03:50:02;97530.50;;;16.46;96.69
55066;BME280;40964;42.114;24.220;2023-05-29T03:52:28;97530.75;;;16.45;96.82
55066;BME280;40964;42.114;24.220;2023-05-29T03:54:53;97527.03;;;16.51;96.53
55066;BME280;40964;42.114;24.220;2023-05-29T03:57:19;97525.75;;;16.54;96.85
55066;BME280;40964;42.114;24.220;2023-05-29T03:59:44;97533.97;;;16.62;97.17
55066;BME280;40964;42.114;24.220;2023-05-29T04:02:10;97540.44;;;16.71;97.01
55066;BME280;40964;42.114;24.220;2023-05-29T04:04:35;97548.66;;;16.75;96.59
55066;BME280;40964;42.114;24.220;2023-05-29T04:07:01;97546.00;;;16.80;96.42
55066;BME280;40964;42.114;24.220;2023-05-29T04:09:26;97535.91;;;16.72;94.96
55066;BME280;40964;42.114;24.220;2023-05-29T04:11:52;97553.44;;;16.88;93.64
55066;BME280;40964;42.114;24.220;2023-05-29T04:14:17;97552.38;;;16.89;95.21
55066;BME280;40964;42.114;24.220;2023-05-29T04:16:43;97548.63;;;16.70;96.66
55066;BME280;40964;42.114;24.220;2023-05-29T04:19:08;97565.56;;;16.54;98.42
55066;BME280;40964;42.114;24.220;2023-05-29T04:21:34;97555.97;;;16.48;100.00
55066;BME280;40964;42.114;24.220;2023-05-29T04:24:00;97565.00;;;16.46;100.00
55066;BME280;40964;42.114;24.220;2023-05-29T04:26:25;97562.06;;;16.53;100.00
55066;BME280;40964;42.114;24.220;2023-05-29T04:28:54;97555.75;;;16.59;100.00
55066;BME280;40964;42.114;24.220;2023-05-29T04:31:24;97557.34;;;16.55;99.82
55066;BME280;40964;42.114;24.220;2023-05-29T04:33:54;97560.28;;;16.64;98.39
55066;BME280;40964;42.114;24.220;2023-05-29T04:36:23;97562.47;;;16.72;98.37
55066;BME280;40964;42.114;24.220;2023-05-29T04:38:51;97564.31;;;16.77;98.90
55066;BME280;40964;42.114;24.220;2023-05-29T04:41:16;97561.13;;;16.80;99.03
55066;BME280;40964;42.114;24.220;2023-05-29T04:43:42;97566.97;;;16.77;98.48
55066;BME280;40964;42.114;24.220;2023-05-29T04:46:07;97565.13;;;16.77;98.41
55066;BME280;40964;42.114;24.220;2023-05-29T04:48:38;97567.53;;;16.89;99.33
55066;BME280;40964;42.114;24.220;2023-05-29T04:51:06;97561.41;;;16.88;99.57
55066;BME280;40964;42.114;24.220;2023-05-29T04:53:32;97574.22;;;17.01;100.00
55066;BME280;40964;42.114;24.220;2023-05-29T04:55:57;97568.91;;;17.07;99.07
55066;BME280;40964;42.114;24.220;2023-05-29T04:58:26;97562.00;;;17.06;98.74
55066;BME280;40964;42.114;24.220;2023-05-29T05:00:51;97581.16;;;17.08;97.89
55066;BME280;40964;42.114;24.220;2023-05-29T05:03:17;97576.06;;;17.06;97.83
55066;BME280;40964;42.114;24.220;2023-05-29T05:05:42;97577.41;;;17.14;98.24
55066;BME280;40964;42.114;24.220;2023-05-29T05:08:09;97581.16;;;17.18;98.78
55066;BME280;40964;42.114;24.220;2023-05-29T05:10:37;97584.63;;;17.28;98.76
55066;BME280;40964;42.114;24.220;2023-05-29T05:13:02;97592.59;;;17.39;95.03
55066;BME280;40964;42.114;24.220;2023-05-29T05:15:28;97585.16;;;17.46;93.52
55066;BME280;40964;42.114;24.220;2023-05-29T05:17:54;97595.53;;;17.57;93.37
55066;BME280;40964;42.114;24.220;2023-05-29T05:20:19;97594.19;;;17.65;92.88
55066;BME280;40964;42.114;24.220;2023-05-29T05:22:45;97598.50;;;17.71;91.53
55066;BME280;40964;42.114;24.220;2023-05-29T05:27:59;97594.22;;;17.80;91.32
55066;BME280;40964;42.114;24.220;2023-05-29T05:30:24;97603.00;;;17.81;90.96
55066;BME280;40964;42.114;24.220;2023-05-29T05:32:50;97614.19;;;17.73;91.60
55066;BME280;40964;42.114;24.220;2023-05-29T05:35:15;97619.19;;;17.69;89.56
55066;BME280;40964;42.114;24.220;2023-05-29T05:37:41;97627.97;;;17.59;91.68
55066;BME280;40964;42.114;24.220;2023-05-29T05:40:07;97623.97;;;17.47;92.97
55066;BME280;40964;42.114;24.220;2023-05-29T05:42:34;97635.16;;;17.54;93.43
55066;BME280;40964;42.114;24.220;2023-05-29T05:44:59;97624.53;;;17.54;95.18
55066;BME280;40964;42.114;24.220;2023-05-29T05:47:24;97623.97;;;17.67;97.27
55066;BME280;40964;42.114;24.220;2023-05-29T05:49:50;97634.41;;;17.74;97.93
55066;BME280;40964;42.114;24.220;2023-05-29T05:52:17;97627.47;;;17.78;97.85
55066;BME280;40964;42.114;24.220;2023-05-29T05:54:43;97626.16;;;17.75;97.29
55066;BME280;40964;42.114;24.220;2023-05-29T05:57:09;97628.00;;;17.75;97.02
55066;BME280;40964;42.114;24.220;2023-05-29T05:59:34;97626.94;;;17.86;98.10
55066;BME280;40964;42.114;24.220;2023-05-29T06:02:00;97630.13;;;17.83;99.33
55066;BME280;40964;42.114;24.220;2023-05-29T06:04:25;97621.91;;;17.90;99.44
55066;BME280;40964;42.114;24.220;2023-05-29T06:06:51;97631.72;;;17.84;99.75
55066;BME280;40964;42.114;24.220;2023-05-29T06:09:16;97620.81;;;17.75;98.65
55066;BME280;40964;42.114;24.220;2023-05-29T06:11:42;97622.94;;;17.83;98.32
55066;BME280;40964;42.114;24.220;2023-05-29T06:14:07;97624.25;;;17.96;98.29
55066;BME280;40964;42.114;24.220;2023-05-29T06:16:33;97620.53;;;18.07;98.32
55066;BME280;40964;42.114;24.220;2023-05-29T06:18:58;97622.91;;;18.19;96.88
55066;BME280;40964;42.114;24.220;2023-05-29T06:21:23;97623.69;;;18.30;95.65
55066;BME280;40964;42.114;24.220;2023-05-29T06:23:49;97621.25;;;18.38;97.75
55066;BME280;40964;42.114;24.220;2023-05-29T06:26:14;97617.00;;;18.42;95.57
55066;BME280;40964;42.114;24.220;2023-05-29T06:28:41;97626.28;;;18.55;93.94
55066;BME280;40964;42.114;24.220;2023-05-29T06:31:06;97626.50;;;18.64;93.70
55066;BME280;40964;42.114;24.220;2023-05-29T06:33:32;97613.44;;;18.73;92.16
55066;BME280;40964;42.114;24.220;2023-05-29T06:35:57;97627.81;;;18.82;91.88
55066;BME280;40964;42.114;24.220;2023-05-29T06:38:23;97627.50;;;18.88;91.27
55066;BME280;40964;42.114;24.220;2023-05-29T06:40:48;97630.97;;;18.84;86.42
55066;BME280;40964;42.114;24.220;2023-05-29T06:43:14;97633.38;;;18.85;85.05
55066;BME280;40964;42.114;24.220;2023-05-29T06:45:39;97629.06;;;18.94;86.64
55066;BME280;40964;42.114;24.220;2023-05-29T06:48:06;97635.97;;;19.00;85.10
55066;BME280;40964;42.114;24.220;2023-05-29T06:50:31;97625.81;;;19.08;85.26
55066;BME280;40964;42.114;24.220;2023-05-29T06:52:57;97632.16;;;19.17;85.05
55066;BME280;40964;42.114;24.220;2023-05-29T06:55:22;97622.22;;;19.27;82.95
55066;BME280;40964;42.114;24.220;2023-05-29T06:57:47;97630.16;;;19.38;82.48
55066;BME280;40964;42.114;24.220;2023-05-29T07:00:13;97617.03;;;19.46;81.26
55066;BME280;40964;42.114;24.220;2023-05-29T07:02:39;97620.69;;;19.61;82.12
55066;BME280;40964;42.114;24.220;2023-05-29T07:05:05;97623.50;;;19.74;80.72
55066;BME280;40964;42.114;24.220;2023-05-29T07:07:31;97623.47;;;19.79;78.92
55066;BME280;40964;42.114;24.220;2023-05-29T07:09:56;97616.66;;;19.97;76.45
55066;BME280;40964;42.114;24.220;2023-05-29T07:12:22;97625.31;;;20.13;76.84
55066;BME280;40964;42.114;24.220;2023-05-29T07:14:48;97630.47;;;20.28;77.13
55066;BME280;40964;42.114;24.220;2023-05-29T07:17:14;97632.25;;;20.43;71.74
55066;BME280;40964;42.114;24.220;2023-05-29T07:19:41;97635.44;;;20.69;74.58
55066;BME280;40964;42.114;24.220;2023-05-29T07:22:06;97623.88;;;20.74;74.88
55066;BME280;40964;42.114;24.220;2023-05-29T07:24:32;97627.19;;;20.84;73.01
55066;BME280;40964;42.114;24.220;2023-05-29T07:26:58;97629.88;;;20.84;74.38
55066;BME280;40964;42.114;24.220;2023-05-29T07:29:23;97624.03;;;20.82;71.20
55066;BME280;40964;42.114;24.220;2023-05-29T07:31:50;97632.94;;;20.96;70.00
55066;BME280;40964;42.114;24.220;2023-05-29T07:34:16;97619.06;;;20.94;69.52
55066;BME280;40964;42.114;24.220;2023-05-29T07:37:04;97651.28;;;21.27;69.92
55066;BME280;40964;42.114;24.220;2023-05-29T07:39:31;97642.63;;;21.87;71.26
55066;BME280;40964;42.114;24.220;2023-05-29T07:41:56;97637.97;;;22.25;62.28
55066;BME280;40964;42.114;24.220;2023-05-29T07:44:22;97637.00;;;22.48;62.81
55066;BME280;40964;42.114;24.220;2023-05-29T07:46:48;97634.03;;;23.05;66.96
55066;BME280;40964;42.114;24.220;2023-05-29T07:49:14;97624.66;;;23.16;62.64
55066;BME280;40964;42.114;24.220;2023-05-29T07:51:40;97629.50;;;23.28;59.48
55066;BME280;40964;42.114;24.220;2023-05-29T07:54:06;97633.41;;;23.44;60.80
55066;BME280;40964;42.114;24.220;2023-05-29T07:56:31;97633.69;;;23.56;55.08
55066;BME280;40964;42.114;24.220;2023-05-29T07:58:59;97631.38;;;23.86;57.02
55066;BME280;40964;42.114;24.220;2023-05-29T08:01:25;97606.66;;;23.75;52.85
55066;BME280;40964;42.114;24.220;2023-05-29T08:03:51;97620.81;;;23.89;53.96
55066;BME280;40964;42.114;24.220;2023-05-29T08:06:17;97634.44;;;23.70;57.72
55066;BME280;40964;42.114;24.220;2023-05-29T08:08:42;97637.22;;;23.88;56.16
55066;BME280;40964;42.114;24.220;2023-05-29T08:11:10;97640.13;;;23.91;53.42
55066;BME280;40964;42.114;24.220;2023-05-29T08:13:36;97636.94;;;23.67;55.95
55066;BME280;40964;42.114;24.220;2023-05-29T08:16:01;97646.41;;;23.64;52.19
55066;BME280;40964;42.114;24.220;2023-05-29T08:18:29;97644.00;;;23.63;51.97
55066;BME280;40964;42.114;24.220;2023-05-29T08:20:55;97635.22;;;23.93;50.95
55066;BME280;40964;42.114;24.220;2023-05-29T08:23:21;97638.50;;;23.90;53.96
55066;BME280;40964;42.114;24.220;2023-05-29T08:28:34;97639.81;;;24.24;55.54
55066;BME280;40964;42.114;24.220;2023-05-29T08:31:00;97642.72;;;24.05;53.66
55066;BME280;40964;42.114;24.220;2023-05-29T08:33:25;97642.13;;;24.17;53.11
55066;BME280;40964;42.114;24.220;2023-05-29T08:35:51;97635.97;;;24.39;54.35
55066;BME280;40964;42.114;24.220;2023-05-29T08:38:16;97633.75;;;24.41;54.63
55066;BME280;40964;42.114;24.220;2023-05-29T08:40:42;97640.41;;;24.43;51.17
55066;BME280;40964;42.114;24.220;2023-05-29T08:43:21;97626.84;;;24.48;52.55
55066;BME280;40964;42.114;24.220;2023-05-29T08:45:47;97632.38;;;24.52;53.78
55066;BME280;40964;42.114;24.220;2023-05-29T08:48:18;97628.03;;;24.73;51.80
55066;BME280;40964;42.114;24.220;2023-05-29T08:50:45;97632.44;;;24.69;50.45
55066;BME280;40964;42.114;24.220;2023-05-29T08:53:16;97628.28;;;24.54;49.42
55066;BME280;40964;42.114;24.220;2023-05-29T08:55:44;97643.25;;;24.86;51.33
55066;BME280;40964;42.114;24.220;2023-05-29T08:58:13;97644.22;;;24.90;50.16
55066;BME280;40964;42.114;24.220;2023-05-29T09:00:39;97638.09;;;25.07;48.84
55066;BME280;40964;42.114;24.220;2023-05-29T09:03:06;97633.44;;;24.90;51.03
55066;BME280;40964;42.114;24.220;2023-05-29T09:05:32;97632.81;;;24.94;51.15
55066;BME280;40964;42.114;24.220;2023-05-29T09:07:59;97635.41;;;25.16;50.89
55066;BME280;40964;42.114;24.220;2023-05-29T09:10:25;97629.75;;;25.35;48.84
55066;BME280;40964;42.114;24.220;2023-05-29T09:12:51;97633.06;;;25.40;46.59
55066;BME280;40964;42.114;24.220;2023-05-29T09:15:19;97632.25;;;25.48;49.94
55066;BME280;40964;42.114;24.220;2023-05-29T09:17:50;97630.22;;;25.71;50.40
55066;BME280;40964;42.114;24.220;2023-05-29T09:20:16;97617.75;;;26.14;48.08
55066;BME280;40964;42.114;24.220;2023-05-29T09:22:52;97614.25;;;26.22;45.25
55066;BME280;40964;42.114;24.220;2023-05-29T09:25:19;97617.66;;;26.78;45.30
55066;BME280;40964;42.114;24.220;2023-05-29T09:27:46;97614.91;;;26.86;48.24
55066;BME280;40964;42.114;24.220;2023-05-29T09:30:30;97614.09;;;26.65;46.49
55066;BME280;40964;42.114;24.220;2023-05-29T09:32:59;97616.78;;;26.65;45.18
55066;BME280;40964;42.114;24.220;2023-05-29T09:35:26;97613.72;;;26.37;46.58
55066;BME280;40964;42.114;24.220;2023-05-29T09:37:52;97604.38;;;26.35;45.17
55066;BME280;40964;42.114;24.220;2023-05-29T09:40:17;97606.75;;;26.36;47.15
55066;BME280;40964;42.114;24.220;2023-05-29T09:42:43;97606.72;;;26.53;47.65
55066;BME280;40964;42.114;24.220;2023-05-29T09:45:09;97607.16;;;26.55;46.59
55066;BME280;40964;42.114;24.220;2023-05-29T09:47:34;97604.13;;;26.57;45.34
55066;BME280;40964;42.114;24.220;2023-05-29T09:50:00;97598.41;;;26.20;45.07
55066;BME280;40964;42.114;24.220;2023-05-29T09:52:28;97607.75;;;26.14;44.30
55066;BME280;40964;42.114;24.220;2023-05-29T09:54:55;97596.47;;;25.74;46.00
55066;BME280;40964;42.114;24.220;2023-05-29T09:57:22;97596.72;;;25.98;48.03
55066;BME280;40964;42.114;24.220;2023-05-29T09:59:49;97596.09;;;26.01;45.91
55066;BME280;40964;42.114;24.220;2023-05-29T10:02:17;97600.41;;;26.32;47.65
55066;BME280;40964;42.114;24.220;2023-05-29T10:04:43;97592.66;;;26.30;44.45
55066;BME280;40964;42.114;24.220;2023-05-29T10:07:27;97586.16;;;26.23;43.63
55066;BME280;40964;42.114;24.220;2023-05-29T10:10:04;97594.53;;;25.83;45.51
55066;BME280;40964;42.114;24.220;2023-05-29T10:12:35;97582.34;;;25.60;46.65
55066;BME280;40964;42.114;24.220;2023-05-29T10:15:02;97581.22;;;25.61;46.35
55066;BME280;40964;42.114;24.220;2023-05-29T10:17:33;97585.03;;;25.60;48.21
55066;BME280;40964;42.114;24.220;2023-05-29T10:20:05;97580.25;;;25.91;51.71
55066;BME280;40964;42.114;24.220;2023-05-29T10:22:33;97585.75;;;26.12;46.33
55066;BME280;40964;42.114;24.220;2023-05-29T10:24:59;97590.19;;;26.08;44.28
55066;BME280;40964;42.114;24.220;2023-05-29T10:27:26;97589.50;;;26.28;46.30
55066;BME280;40964;42.114;24.220;2023-05-29T10:36:10;97579.22;;;26.13;44.40
55066;BME280;40964;42.114;24.220;2023-05-29T10:38:40;97577.38;;;25.96;46.08
55066;BME280;40964;42.114;24.220;2023-05-29T10:43:54;97580.47;;;26.24;47.15
55066;BME280;40964;42.114;24.220;2023-05-29T10:46:20;97575.97;;;26.37;45.91
55066;BME280;40964;42.114;24.220;2023-05-29T10:48:49;97579.81;;;26.27;45.50
55066;BME280;40964;42.114;24.220;2023-05-29T10:51:25;97576.75;;;25.99;45.94
55066;BME280;40964;42.114;24.220;2023-05-29T10:53:52;97561.38;;;26.00;45.99
55066;BME280;40964;42.114;24.220;2023-05-29T10:56:29;97565.75;;;26.13;47.20
55066;BME280;40964;42.114;24.220;2023-05-29T10:58:57;97560.94;;;26.27;47.65
55066;BME280;40964;42.114;24.220;2023-05-29T11:01:24;97558.88;;;26.33;47.33
55066;BME280;40964;42.114;24.220;2023-05-29T11:03:54;97561.09;;;26.69;45.86
55066;BME280;40964;42.114;24.220;2023-05-29T11:06:39;97549.25;;;27.03;45.47
55066;BME280;40964;42.114;24.220;2023-05-29T11:09:05;97545.31;;;27.22;43.10
55066;BME280;40964;42.114;24.220;2023-05-29T11:11:33;97543.34;;;27.10;41.43
55066;BME280;40964;42.114;24.220;2023-05-29T11:14:06;97552.66;;;26.71;42.21
55066;BME280;40964;42.114;24.220;2023-05-29T11:18:59;97545.13;;;26.17;43.41
55066;BME280;40964;42.114;24.220;2023-05-29T11:24:15;97544.00;;;26.56;47.64
55066;BME280;40964;42.114;24.220;2023-05-29T11:26:45;97535.91;;;26.56;44.44
55066;BME280;40964;42.114;24.220;2023-05-29T11:29:11;97539.34;;;26.66;44.69
55066;BME280;40964;42.114;24.220;2023-05-29T11:31:39;97543.06;;;26.82;44.17
55066;BME280;40964;42.114;24.220;2023-05-29T11:34:09;97537.03;;;27.06;43.37
55066;BME280;40964;42.114;24.220;2023-05-29T11:36:35;97542.69;;;27.13;43.33
55066;BME280;40964;42.114;24.220;2023-05-29T11:39:05;97534.97;;;27.03;44.84
55066;BME280;40964;42.114;24.220;2023-05-29T11:41:31;97534.09;;;26.90;42.84
55066;BME280;40964;42.114;24.220;2023-05-29T11:44:00;97541.94;;;27.04;43.08
55066;BME280;40964;42.114;24.220;2023-05-29T11:46:31;97543.38;;;26.80;43.70
55066;BME280;40964;42.114;24.220;2023-05-29T11:48:58;97540.88;;;26.75;42.75
55066;BME280;40964;42.114;24.220;2023-05-29T11:51:24;97541.19;;;26.53;41.93
55066;BME280;40964;42.114;24.220;2023-05-29T11:53:50;97547.25;;;26.32;42.52
55066;BME280;40964;42.114;24.220;2023-05-29T11:56:18;97534.56;;;26.42;44.05
55066;BME280;40964;42.114;24.220;2023-05-29T11:58:44;97543.16;;;26.35;44.88
55066;BME280;40964;42.114;24.220;2023-05-29T12:01:10;97534.03;;;26.19;44.38
55066;BME280;40964;42.114;24.220;2023-05-29T12:03:42;97542.19;;;26.01;44.70
55066;BME280;40964;42.114;24.220;2023-05-29T12:06:08;97548.78;;;26.13;43.77
55066;BME280;40964;42.114;24.220;2023-05-29T12:08:36;97538.38;;;26.32;42.73
55066;BME280;40964;42.114;24.220;2023-05-29T12:11:02;97547.66;;;26.14;43.53
55066;BME280;40964;42.114;24.220;2023-05-29T12:13:27;97536.53;;;25.77;45.69
55066;BME280;40964;42.114;24.220;2023-05-29T12:16:02;97549.72;;;24.75;52.75
55066;BME280;40964;42.114;24.220;2023-05-29T12:18:29;97543.56;;;23.95;56.71
55066;BME280;40964;42.114;24.220;2023-05-29T12:21:02;97539.59;;;23.61;60.13
55066;BME280;40964;42.114;24.220;2023-05-29T12:23:29;97534.47;;;23.06;62.41
55066;BME280;40964;42.114;24.220;2023-05-29T12:25:56;97521.22;;;22.87;63.38
55066;BME280;40964;42.114;24.220;2023-05-29T12:28:21;97537.22;;;22.65;63.58
55066;BME280;40964;42.114;24.220;2023-05-29T12:30:48;97535.94;;;22.62;63.54
55066;BME280;40964;42.114;24.220;2023-05-29T12:33:32;97540.47;;;22.76;61.59
55066;BME280;40964;42.114;24.220;2023-05-29T12:36:12;97529.56;;;23.08;62.68
55066;BME280;40964;42.114;24.220;2023-05-29T12:38:48;97535.06;;;23.26;60.08
55066;BME280;40964;42.114;24.220;2023-05-29T12:41:28;97525.44;;;23.47;58.47
55066;BME280;40964;42.114;24.220;2023-05-29T12:43:57;97526.59;;;23.32;58.11
55066;BME280;40964;42.114;24.220;2023-05-29T12:46:24;97511.88;;;23.52;62.73
55066;BME280;40964;42.114;24.220;2023-05-29T12:48:52;97513.00;;;23.51;59.14
55066;BME280;40964;42.114;24.220;2023-05-29T12:51:22;97499.72;;;23.23;60.67
55066;BME280;40964;42.114;24.220;2023-05-29T12:53:48;97503.59;;;23.40;60.12
55066;BME280;40964;42.114;24.220;2023-05-29T12:56:14;97502.34;;;23.37;59.72
55066;BME280;40964;42.114;24.220;2023-05-29T12:58:39;97491.59;;;23.60;58.28
55066;BME280;40964;42.114;24.220;2023-05-29T13:01:05;97496.25;;;23.76;56.93
55066;BME280;40964;42.114;24.220;2023-05-29T13:03:37;97493.72;;;23.49;56.48
55066;BME280;40964;42.114;24.220;2023-05-29T13:06:02;97495.13;;;23.46;55.16
55066;BME280;40964;42.114;24.220;2023-05-29T13:08:27;97493.84;;;23.44;55.48
55066;BME280;40964;42.114;24.220;2023-05-29T13:10:53;97490.97;;;23.40;55.48
55066;BME280;40964;42.114;24.220;2023-05-29T13:13:18;97491.16;;;23.44;55.40
55066;BME280;40964;42.114;24.220;2023-05-29T13:15:45;97492.34;;;23.29;54.24
55066;BME280;40964;42.114;24.220;2023-05-29T13:18:10;97497.41;;;23.31;55.82
55066;BME280;40964;42.114;24.220;2023-05-29T13:20:36;97496.66;;;23.39;55.01